KBIL/BIL METAR and TAF weather

Enter ICAO airport designator
Station Type Date Time Source
KBIL METAR 2019/08/24 20:04 UTC NOAA

KBIL 242004Z 31010G20KT 10SM FEW100 BKN160 BKN220 31/08 A2988 RMK AO2 WSHFT 1944 VIRGA ALQDS T03060078


Station Type Date Time Source
KBIL Decoded METAR 2019/08/24 20:04 UTC NOAA

Station name not available
Aug 24, 2019 - 04:04 PM EDT / 2019.08.24 2004 UTC
Wind: from the NW (310 degrees) at 12 MPH (10 KT) gusting to 23 MPH (20 KT):0
Visibility: 10 mile(s):0
Sky conditions: mostly cloudy
Temperature: 87.1 F (30.6 C)
Dew Point: 46.0 F (7.8 C)
Relative Humidity: 24%
Pressure (altimeter): 29.88 in. Hg (1011 hPa)
ob: KBIL 242004Z 31010G20KT 10SM FEW100 BKN160 BKN220 31/08 A2988 RMK AO2 WSHFT 1944 VIRGA ALQDS T03060078
cycle: 20

Station Type Date Time Source
KBIL TAF 2019/08/24 18:36 UTC NOAA

TAF KBIL 241733Z 2418/2518 23012KT P6SM FEW100 BKN200
FM242100 30010KT P6SM VCSH SCT080 BKN120
FM250000 03009KT P6SM VCTS BKN080CB
FM250700 26008KT P6SM BKN100

Example: see airport list